createdAt,value
2023-04-26T00:01:28.434Z,97653.09
2023-04-26T00:04:30.883Z,97652.70
2023-04-26T00:07:33.415Z,97651.61
2023-04-26T00:10:35.185Z,97656.40
2023-04-26T00:13:37.841Z,97665.05
2023-04-26T00:16:39.747Z,97664.92
2023-04-26T00:19:41.586Z,97665.80
2023-04-26T00:22:44.018Z,97669.49
2023-04-26T00:25:45.714Z,97669.13
2023-04-26T00:28:47.472Z,97671.98
2023-04-26T00:31:49.335Z,97672.50
2023-04-26T00:34:51.122Z,97674.48
2023-04-26T00:37:52.842Z,97680.23
2023-04-26T00:40:54.787Z,97681.36
2023-04-26T00:43:56.515Z,97687.91
2023-04-26T00:46:58.220Z,97685.59
2023-04-26T00:50:01.310Z,97687.41
2023-04-26T00:53:03.566Z,97678.73
2023-04-26T00:56:09.191Z,97680.73
2023-04-26T00:59:11.088Z,97680.38
2023-04-26T01:02:13.177Z,97680.15
2023-04-26T01:05:15.040Z,97684.17
2023-04-26T01:08:20.440Z,97683.88
2023-04-26T01:11:22.770Z,97683.27
2023-04-26T01:14:24.681Z,97682.27
2023-04-26T01:17:26.407Z,97682.13
2023-04-26T01:20:28.404Z,97681.27
2023-04-26T01:23:30.474Z,97684.11
2023-04-26T01:26:33.793Z,97682.31
2023-04-26T01:29:35.811Z,97689.55
2023-04-26T01:32:39.095Z,97695.84
2023-04-26T01:35:41.531Z,97695.77
2023-04-26T01:38:43.381Z,97695.55
2023-04-26T01:41:45.156Z,97697.83
2023-04-26T01:44:46.853Z,97699.73
2023-04-26T01:47:48.646Z,97707.19
2023-04-26T01:50:50.405Z,97706.11
2023-04-26T01:53:52.255Z,97702.06
2023-04-26T01:56:53.958Z,97702.76
2023-04-26T01:59:56.204Z,97703.88
2023-04-26T02:02:58.026Z,97695.66
2023-04-26T02:06:00.073Z,97701.48
2023-04-26T02:09:05.336Z,97702.49
2023-04-26T02:12:07.140Z,97703.06
2023-04-26T02:15:09.132Z,97702.83
2023-04-26T02:18:11.023Z,97702.38
2023-04-26T02:21:12.811Z,97702.85
2023-04-26T02:24:14.510Z,97704.35
2023-04-26T02:27:16.176Z,97701.54
2023-04-26T02:30:18.003Z,97707.80
2023-04-26T02:33:19.712Z,97704.38
2023-04-26T02:36:21.646Z,97708.14
2023-04-26T02:39:23.887Z,97703.92
2023-04-26T02:42:25.646Z,97704.86
2023-04-26T02:45:27.384Z,97703.15
2023-04-26T02:48:29.169Z,97701.73
2023-04-26T02:51:32.922Z,97705.51
2023-04-26T02:54:35.056Z,97701.60
2023-04-26T02:57:36.743Z,97700.20
2023-04-26T03:00:46.593Z,97699.41
2023-04-26T03:03:48.709Z,97698.02
2023-04-26T03:06:50.433Z,97698.41
2023-04-26T03:09:52.169Z,97698.02
2023-04-26T03:12:53.965Z,97701.86
2023-04-26T03:15:55.833Z,97707.27
2023-04-26T03:18:57.627Z,97713.06
2023-04-26T03:21:59.457Z,97720.58
2023-04-26T03:25:01.473Z,97721.73
2023-04-26T03:28:03.818Z,97718.54
2023-04-26T03:31:05.619Z,97730.91
2023-04-26T03:34:07.464Z,97730.75
2023-04-26T03:37:09.296Z,97735.13
2023-04-26T03:40:11.986Z,97739.42
2023-04-26T03:43:13.675Z,97741.23
2023-04-26T03:46:15.574Z,97738.41
2023-04-26T03:49:17.387Z,97744.44
2023-04-26T03:52:19.398Z,97743.80
2023-04-26T03:55:21.349Z,97750.61
2023-04-26T03:58:25.341Z,97755.07
2023-04-26T04:01:27.124Z,97764.06
2023-04-26T04:04:29.139Z,97766.95
2023-04-26T04:07:32.301Z,97770.86
2023-04-26T04:10:34.036Z,97772.66
2023-04-26T04:13:35.872Z,97770.47
2023-04-26T04:16:37.918Z,97775.79
2023-04-26T04:19:39.701Z,97779.08
2023-04-26T04:22:41.573Z,97779.79
2023-04-26T04:25:44.869Z,97783.54
2023-04-26T04:28:48.050Z,97785.64
2023-04-26T04:31:50.190Z,97792.85
2023-04-26T04:34:53.259Z,97790.02
2023-04-26T04:37:58.300Z,97798.23
2023-04-26T04:41:00.292Z,97796.83
2023-04-26T04:44:03.399Z,97798.02
2023-04-26T04:47:05.581Z,97799.04
2023-04-26T04:50:08.727Z,97797.55
2023-04-26T04:53:12.058Z,97807.02
2023-04-26T04:56:15.189Z,97812.98
2023-04-26T04:59:17.043Z,97810.23
2023-04-26T05:02:19.521Z,97812.52
2023-04-26T05:05:21.779Z,97814.10
2023-04-26T05:08:23.500Z,97819.66
2023-04-26T05:11:25.600Z,97821.77
2023-04-26T05:14:28.739Z,97823.58
2023-04-26T05:17:31.809Z,97825.86
2023-04-26T05:20:36.579Z,97830.64
2023-04-26T05:23:38.291Z,97832.36
2023-04-26T05:26:40.262Z,97832.98
2023-04-26T05:29:54.660Z,97832.11
2023-04-26T05:33:19.656Z,97830.30
2023-04-26T05:36:30.182Z,97827.64
2023-04-26T05:39:32.186Z,97826.52
2023-04-26T05:42:34.262Z,97830.27
2023-04-26T05:45:36.117Z,97833.62
2023-04-26T05:48:38.287Z,97833.14
2023-04-26T05:51:41.879Z,97835.64
2023-04-26T05:54:43.524Z,97832.95
2023-04-26T05:57:45.350Z,97836.23
2023-04-26T06:00:47.187Z,97836.07
2023-04-26T06:03:49.797Z,97838.04
2023-04-26T06:06:53.507Z,97845.47
2023-04-26T06:09:56.156Z,97844.59
2023-04-26T06:12:58.038Z,97845.10
2023-04-26T06:16:00.461Z,97852.67
2023-04-26T06:19:02.262Z,97852.70
2023-04-26T06:22:04.199Z,97858.48
2023-04-26T06:25:07.277Z,97864.23
2023-04-26T06:28:13.818Z,97860.45
2023-04-26T06:31:15.700Z,97862.22
2023-04-26T06:34:17.547Z,97863.74
2023-04-26T06:37:19.256Z,97862.29
2023-04-26T06:40:21.470Z,97860.83
2023-04-26T06:43:23.258Z,97859.27
2023-04-26T06:46:37.652Z,97851.27
2023-04-26T06:49:39.436Z,97851.23
2023-04-26T06:52:41.104Z,97847.08
2023-04-26T06:55:42.773Z,97845.47
2023-04-26T06:59:01.232Z,97847.64
2023-04-26T07:02:03.321Z,97846.51
2023-04-26T07:05:05.523Z,97851.57
2023-04-26T07:08:07.764Z,97855.94
2023-04-26T07:11:10.839Z,97853.45
2023-04-26T07:14:12.594Z,97849.36
2023-04-26T07:17:14.371Z,97855.98
2023-04-26T07:20:19.229Z,97852.45
2023-04-26T07:23:20.941Z,97853.56
2023-04-26T07:26:23.891Z,97855.42
2023-04-26T07:29:25.661Z,97861.89
2023-04-26T07:32:27.547Z,97866.20
2023-04-26T07:35:29.396Z,97869.09
2023-04-26T07:38:31.163Z,97871.40
2023-04-26T07:41:32.857Z,97874.74
2023-04-26T07:44:34.524Z,97876.89
2023-04-26T07:47:36.793Z,97874.14
2023-04-26T07:50:38.595Z,97876.48
2023-04-26T07:53:40.719Z,97882.15
2023-04-26T07:56:42.412Z,97883.23
2023-04-26T07:59:44.097Z,97881.71
2023-04-26T08:02:48.810Z,97883.55
2023-04-26T08:05:51.162Z,97882.78
2023-04-26T08:08:53.348Z,97889.58
2023-04-26T08:11:55.108Z,97887.55
2023-04-26T08:14:56.881Z,97887.91
2023-04-26T08:17:58.825Z,97891.46
2023-04-26T08:21:00.833Z,97892.73
2023-04-26T08:24:03.124Z,97895.17
2023-04-26T08:27:05.672Z,97889.90
2023-04-26T08:30:07.768Z,97891.70
2023-04-26T08:33:09.882Z,97892.34
2023-04-26T08:36:12.205Z,97896.51
2023-04-26T08:39:13.905Z,97898.98
2023-04-26T08:42:16.967Z,97898.69
2023-04-26T08:45:20.896Z,97897.93
2023-04-26T08:48:22.703Z,97898.57
2023-04-26T08:51:25.353Z,97896.75
2023-04-26T08:54:27.826Z,97895.11
2023-04-26T08:57:31.999Z,97898.98
2023-04-26T09:00:36.572Z,97897.30
2023-04-26T09:03:38.490Z,97908.55
2023-04-26T09:06:41.016Z,97904.91
2023-04-26T09:09:44.187Z,97908.88
2023-04-26T09:12:46.190Z,97907.13
2023-04-26T09:15:48.277Z,97901.88
2023-04-26T09:18:54.825Z,97899.73
2023-04-26T09:21:56.943Z,97899.50
2023-04-26T09:24:59.245Z,97899.77
2023-04-26T09:28:17.991Z,97901.05
2023-04-26T09:31:42.810Z,97913.05
2023-04-26T09:34:48.354Z,97917.42
2023-04-26T09:38:13.244Z,97923.17
2023-04-26T09:41:16.250Z,97924.20
2023-04-26T09:44:25.271Z,97918.09
2023-04-26T09:47:27.120Z,97924.63
2023-04-26T09:50:30.899Z,97916.02
2023-04-26T09:53:47.124Z,97913.25
2023-04-26T09:57:02.144Z,97909.79
2023-04-26T10:00:11.445Z,97912.48
2023-04-26T10:03:13.674Z,97923.35
2023-04-26T10:06:15.959Z,97938.20
2023-04-26T10:09:17.902Z,97939.88
2023-04-26T10:12:20.289Z,97932.83
2023-04-26T10:15:22.257Z,97927.05
2023-04-26T10:18:24.008Z,97913.89
2023-04-26T10:21:34.753Z,97909.48
2023-04-26T10:24:36.885Z,97911.88
2023-04-26T10:27:44.877Z,97916.04
2023-04-26T10:30:57.566Z,97915.35
2023-04-26T10:34:19.321Z,97919.61
2023-04-26T10:37:21.279Z,97915.51
2023-04-26T10:40:25.123Z,97927.88
2023-04-26T10:43:27.645Z,97932.92
2023-04-26T10:46:35.914Z,97936.65
2023-04-26T10:49:47.842Z,97935.48
2023-04-26T10:53:02.936Z,97939.60
2023-04-26T10:56:04.898Z,97933.04
2023-04-26T10:59:22.542Z,97930.24
2023-04-26T11:03:05.799Z,97933.80
2023-04-26T11:06:09.372Z,97935.48
2023-04-26T11:09:36.934Z,97951.25
2023-04-26T11:12:41.544Z,97953.95
2023-04-26T11:15:43.460Z,97944.86
2023-04-26T11:18:46.633Z,97935.13
2023-04-26T11:21:48.668Z,97927.48
2023-04-26T11:24:50.933Z,97926.51
2023-04-26T11:27:56.247Z,97918.27
2023-04-26T11:30:59.077Z,97921.53
2023-04-26T11:34:04.302Z,97921.60
2023-04-26T11:37:06.674Z,97922.04
2023-04-26T11:40:11.242Z,97930.92
2023-04-26T11:43:13.411Z,97933.17
2023-04-26T11:46:16.161Z,97932.13
2023-04-26T11:49:18.175Z,97936.33
2023-04-26T11:52:20.096Z,97934.54
2023-04-26T11:55:28.025Z,97935.97
2023-04-26T11:58:29.840Z,97934.73
2023-04-26T12:01:32.104Z,97939.44
2023-04-26T12:04:34.205Z,97939.23
2023-04-26T12:07:37.346Z,97938.48
2023-04-26T12:10:39.190Z,97932.30
2023-04-26T12:13:40.959Z,97932.33
2023-04-26T12:16:42.916Z,97938.66
2023-04-26T12:19:50.727Z,97942.21
2023-04-26T12:23:19.168Z,97940.92
2023-04-26T12:26:21.407Z,97931.40
2023-04-26T12:29:29.868Z,97935.15
2023-04-26T12:32:31.762Z,97939.23
2023-04-26T12:35:34.200Z,97936.69
2023-04-26T12:38:36.655Z,97941.28
2023-04-26T12:41:40.127Z,97950.84
2023-04-26T12:44:41.934Z,97952.23
2023-04-26T12:47:45.320Z,97952.41
2023-04-26T12:50:47.120Z,97953.11
2023-04-26T12:53:50.238Z,97951.69
2023-04-26T12:56:52.115Z,97954.14
2023-04-26T12:59:54.062Z,97953.16
2023-04-26T13:02:55.924Z,97949.17
2023-04-26T13:05:57.830Z,97956.16
2023-04-26T13:08:59.617Z,97954.92
2023-04-26T13:12:01.456Z,97947.89
2023-04-26T13:15:03.770Z,97946.05
2023-04-26T13:18:05.985Z,97948.75
2023-04-26T13:21:07.979Z,97945.88
2023-04-26T13:24:10.092Z,97951.83
2023-04-26T13:27:12.618Z,97957.72
2023-04-26T13:30:14.394Z,97965.73
2023-04-26T13:33:16.178Z,97976.10
2023-04-26T13:36:18.194Z,97986.83
2023-04-26T13:39:19.956Z,97988.05
2023-04-26T13:42:21.793Z,97989.07
2023-04-26T13:45:23.492Z,97985.27
2023-04-26T13:48:25.240Z,97983.16
2023-04-26T13:51:29.895Z,97985.80
2023-04-26T13:54:31.680Z,97979.92
2023-04-26T13:57:33.415Z,97977.77
2023-04-26T14:00:35.667Z,97979.95
2023-04-26T14:03:37.374Z,97989.09
2023-04-26T14:06:39.265Z,97999.08
2023-04-26T14:09:41.016Z,98001.67
2023-04-26T14:12:42.846Z,98009.42
2023-04-26T14:15:44.749Z,98010.05
2023-04-26T14:18:47.192Z,98009.27
2023-04-26T14:21:48.922Z,98005.80
2023-04-26T14:24:50.626Z,98005.98
2023-04-26T14:27:53.868Z,98006.99
2023-04-26T14:30:55.753Z,98002.80
2023-04-26T14:33:57.840Z,98006.71
2023-04-26T14:37:01.007Z,98011.23
2023-04-26T14:40:04.035Z,98014.42
2023-04-26T14:43:05.766Z,98015.95
2023-04-26T14:46:07.527Z,98012.65
2023-04-26T14:49:09.402Z,98013.25
2023-04-26T14:52:11.115Z,98010.38
2023-04-26T14:55:19.601Z,98008.81
2023-04-26T14:58:22.354Z,98005.17
2023-04-26T15:01:24.348Z,98010.31
2023-04-26T15:04:26.173Z,98010.75
2023-04-26T15:07:32.136Z,98012.61
2023-04-26T15:10:35.467Z,98014.03
2023-04-26T15:13:37.147Z,98016.12
2023-04-26T15:16:38.953Z,98021.72
2023-04-26T15:19:41.002Z,98026.20
2023-04-26T15:22:42.763Z,98027.62
2023-04-26T15:25:44.393Z,98037.98
2023-04-26T15:28:46.061Z,98041.27
2023-04-26T15:31:48.031Z,98043.20
2023-04-26T15:34:49.856Z,98047.69
2023-04-26T15:37:53.272Z,98057.93
2023-04-26T15:40:55.194Z,98063.63
2023-04-26T15:43:56.947Z,98071.92
2023-04-26T15:47:00.775Z,98072.50
2023-04-26T15:50:05.963Z,98082.27
2023-04-26T15:53:07.701Z,98066.16
2023-04-26T15:56:18.899Z,98052.20
2023-04-26T15:59:21.011Z,98054.00
2023-04-26T16:02:22.777Z,98047.92
2023-04-26T16:05:24.584Z,98049.81
2023-04-26T16:08:39.577Z,98052.31
2023-04-26T16:11:42.211Z,98051.30
2023-04-26T16:14:43.920Z,98047.69
2023-04-26T16:17:45.720Z,98052.17
2023-04-26T16:20:48.117Z,98051.94
2023-04-26T16:23:51.263Z,98055.24
2023-04-26T16:26:53.003Z,98059.72
2023-04-26T16:29:54.809Z,98062.08
2023-04-26T16:32:56.553Z,98064.20
2023-04-26T16:35:58.564Z,98064.77
2023-04-26T16:39:00.426Z,98067.51
2023-04-26T16:42:02.811Z,98070.89
2023-04-26T16:45:05.139Z,98068.30
2023-04-26T16:48:06.893Z,98069.02
2023-04-26T16:51:08.839Z,98070.98
2023-04-26T16:54:11.476Z,98069.27
2023-04-26T16:57:13.650Z,98078.08
2023-04-26T17:00:15.763Z,98079.89
2023-04-26T17:03:18.184Z,98083.19
2023-04-26T17:06:20.570Z,98083.91
2023-04-26T17:09:22.261Z,98086.66
2023-04-26T17:12:24.122Z,98089.02
2023-04-26T17:15:30.011Z,98090.38
2023-04-26T17:18:36.030Z,98095.09
2023-04-26T17:21:38.423Z,98093.98
2023-04-26T17:24:40.131Z,98102.25
2023-04-26T17:27:41.883Z,98104.55
2023-04-26T17:30:46.687Z,98111.53
2023-04-26T17:33:49.730Z,98111.39
2023-04-26T17:36:52.475Z,98113.73
2023-04-26T17:39:54.444Z,98118.46
2023-04-26T17:42:56.339Z,98127.11
2023-04-26T17:45:58.453Z,98128.14
2023-04-26T17:49:00.523Z,98128.61
2023-04-26T17:52:02.750Z,98132.15
2023-04-26T17:55:07.512Z,98132.71
2023-04-26T17:58:10.491Z,98132.23
2023-04-26T18:01:12.261Z,98137.17
2023-04-26T18:04:17.366Z,98137.90
2023-04-26T18:07:19.166Z,98142.05
2023-04-26T18:10:23.916Z,98141.96
2023-04-26T18:13:27.932Z,98146.20
2023-04-26T18:16:35.183Z,98150.52
2023-04-26T18:19:37.674Z,98151.46
2023-04-26T18:22:42.336Z,98157.50
2023-04-26T18:25:44.787Z,98152.97
2023-04-26T18:28:46.577Z,98159.23
2023-04-26T18:31:49.183Z,98159.78
2023-04-26T18:34:51.613Z,98163.40
2023-04-26T18:37:53.246Z,98161.19
2023-04-26T18:40:55.182Z,98168.41
2023-04-26T18:43:56.945Z,98170.14
2023-04-26T18:46:58.890Z,98178.54
2023-04-26T18:50:01.119Z,98180.09
2023-04-26T18:53:03.252Z,98183.79
2023-04-26T18:56:05.290Z,98187.54
2023-04-26T18:59:07.616Z,98189.00
2023-04-26T19:02:09.484Z,98188.98
2023-04-26T19:05:12.535Z,98188.79
2023-04-26T19:08:14.474Z,98193.25
2023-04-26T19:11:16.333Z,98193.39
2023-04-26T19:14:18.086Z,98199.19
2023-04-26T19:17:20.169Z,98195.87
2023-04-26T19:20:22.042Z,98199.55
2023-04-26T19:23:23.942Z,98199.45
2023-04-26T19:26:25.753Z,98200.14
2023-04-26T19:29:27.561Z,98206.46
2023-04-26T19:32:29.335Z,98207.78
2023-04-26T19:35:31.008Z,98205.02
2023-04-26T19:38:32.726Z,98207.75
2023-04-26T19:41:34.423Z,98210.49
2023-04-26T19:44:38.685Z,98208.91
2023-04-26T19:47:41.876Z,98208.51
2023-04-26T19:50:45.748Z,98206.93
2023-04-26T19:53:47.400Z,98207.00
2023-04-26T19:56:49.200Z,98204.02
2023-04-26T19:59:50.922Z,98207.21
2023-04-26T20:02:52.774Z,98207.67
2023-04-26T20:05:54.608Z,98210.09
2023-04-26T20:08:56.324Z,98211.59
2023-04-26T20:11:58.025Z,98214.81
2023-04-26T20:14:59.714Z,98212.23
2023-04-26T20:18:03.367Z,98215.42
2023-04-26T20:21:05.503Z,98217.98
2023-04-26T20:24:07.443Z,98223.13
2023-04-26T20:27:09.130Z,98218.88
2023-04-26T20:30:11.522Z,98227.79
2023-04-26T20:33:13.823Z,98228.77
2023-04-26T20:36:15.555Z,98228.96
2023-04-26T20:39:17.640Z,98230.08
2023-04-26T20:42:19.331Z,98224.63
2023-04-26T20:45:20.986Z,98228.13
2023-04-26T20:48:23.513Z,98230.13
2023-04-26T20:51:26.259Z,98227.05
2023-04-26T20:54:27.976Z,98228.37
2023-04-26T20:57:29.707Z,98225.91
2023-04-26T21:00:31.459Z,98225.95
2023-04-26T21:03:33.768Z,98226.21
2023-04-26T21:06:35.656Z,98229.46
2023-04-26T21:09:37.830Z,98232.77
2023-04-26T21:12:41.123Z,98236.25
2023-04-26T21:15:42.957Z,98236.74
2023-04-26T21:18:44.720Z,98237.55
2023-04-26T21:21:46.958Z,98244.95
2023-04-26T21:24:51.250Z,98249.83
2023-04-26T21:27:53.054Z,98250.25
2023-04-26T21:31:05.452Z,98252.88
2023-04-26T21:34:07.181Z,98254.04
2023-04-26T21:37:10.232Z,98252.19
2023-04-26T21:40:12.374Z,98254.41
2023-04-26T21:43:17.035Z,98256.42
2023-04-26T21:46:19.161Z,98260.77
2023-04-26T21:49:20.948Z,98264.96
2023-04-26T21:52:22.760Z,98264.57
2023-04-26T21:55:24.547Z,98269.95
2023-04-26T21:58:26.465Z,98271.40
2023-04-26T22:01:28.569Z,98276.34
2023-04-26T22:04:30.536Z,98278.22
2023-04-26T22:07:33.175Z,98280.79
2023-04-26T22:10:35.794Z,98281.58
2023-04-26T22:13:37.587Z,98284.41
2023-04-26T22:16:39.462Z,98288.21
2023-04-26T22:19:41.409Z,98291.79
2023-04-26T22:22:43.162Z,98294.10
2023-04-26T22:25:44.939Z,98295.40
2023-04-26T22:28:46.637Z,98298.59
2023-04-26T22:31:48.329Z,98301.91
2023-04-26T22:34:50.282Z,98301.33
2023-04-26T22:37:52.073Z,98302.05
2023-04-26T22:40:53.919Z,98302.48
2023-04-26T22:43:55.758Z,98303.74
2023-04-26T22:46:58.803Z,98304.02
2023-04-26T22:50:00.613Z,98304.48
2023-04-26T22:53:02.471Z,98302.69
2023-04-26T22:56:04.466Z,98304.80
2023-04-26T22:59:06.722Z,98307.60
2023-04-26T23:02:08.454Z,98306.01
2023-04-26T23:05:10.814Z,98310.44
2023-04-26T23:08:12.544Z,98310.87
2023-04-26T23:11:14.274Z,98314.11
2023-04-26T23:14:16.597Z,98316.48
2023-04-26T23:17:19.697Z,98319.29
2023-04-26T23:20:22.195Z,98318.68
2023-04-26T23:23:23.915Z,98321.76
2023-04-26T23:26:25.722Z,98321.33
2023-04-26T23:29:27.508Z,98324.73
2023-04-26T23:32:29.375Z,98323.29
2023-04-26T23:35:31.204Z,98325.87
2023-04-26T23:38:32.925Z,98322.27
2023-04-26T23:41:34.717Z,98327.06
2023-04-26T23:44:36.413Z,98329.33
2023-04-26T23:47:38.325Z,98330.16
2023-04-26T23:50:40.644Z,98329.54
2023-04-26T23:53:43.375Z,98329.63
2023-04-26T23:56:45.173Z,98328.48
2023-04-26T23:59:47.010Z,98327.77
